sensor_id;sensor_type;location;lat;lon;timestamp;P1;durP1;ratioP1;P2;durP2;ratioP2
75216;SDS011;63800;51.972;5.682;2023-06-14T00:00:12;5.53;;;3.10;;
75216;SDS011;63800;51.972;5.682;2023-06-14T00:02:39;6.20;;;3.30;;
75216;SDS011;63800;51.972;5.682;2023-06-14T00:05:05;5.43;;;3.25;;
75216;SDS011;63800;51.972;5.682;2023-06-14T00:07:35;4.50;;;2.72;;
75216;SDS011;63800;51.972;5.682;2023-06-14T00:10:02;3.83;;;2.97;;
75216;SDS011;63800;51.972;5.682;2023-06-14T00:12:29;5.93;;;3.10;;
75216;SDS011;63800;51.972;5.682;2023-06-14T00:14:54;5.28;;;2.95;;
75216;SDS011;63800;51.972;5.682;2023-06-14T00:17:20;5.95;;;3.55;;
75216;SDS011;63800;51.972;5.682;2023-06-14T00:19:46;4.03;;;3.20;;
75216;SDS011;63800;51.972;5.682;2023-06-14T00:22:12;3.75;;;3.10;;
75216;SDS011;63800;51.972;5.682;2023-06-14T00:24:37;6.43;;;3.05;;
75216;SDS011;63800;51.972;5.682;2023-06-14T00:27:03;5.32;;;3.05;;
75216;SDS011;63800;51.972;5.682;2023-06-14T00:29:28;5.95;;;3.75;;
75216;SDS011;63800;51.972;5.682;2023-06-14T00:31:54;7.90;;;3.38;;
75216;SDS011;63800;51.972;5.682;2023-06-14T00:34:19;7.55;;;3.40;;
75216;SDS011;63800;51.972;5.682;2023-06-14T00:36:45;3.78;;;2.80;;
75216;SDS011;63800;51.972;5.682;2023-06-14T00:39:10;5.15;;;3.00;;
75216;SDS011;63800;51.972;5.682;2023-06-14T00:41:36;3.75;;;2.90;;
75216;SDS011;63800;51.972;5.682;2023-06-14T00:44:02;3.65;;;2.90;;
75216;SDS011;63800;51.972;5.682;2023-06-14T00:46:28;5.47;;;3.35;;
75216;SDS011;63800;51.972;5.682;2023-06-14T00:48:53;5.10;;;3.20;;
75216;SDS011;63800;51.972;5.682;2023-06-14T00:51:21;5.80;;;3.40;;
75216;SDS011;63800;51.972;5.682;2023-06-14T00:53:46;4.55;;;2.75;;
75216;SDS011;63800;51.972;5.682;2023-06-14T00:56:13;6.78;;;3.22;;
75216;SDS011;63800;51.972;5.682;2023-06-14T00:58:40;4.78;;;2.92;;
75216;SDS011;63800;51.972;5.682;2023-06-14T01:01:06;5.80;;;2.97;;
75216;SDS011;63800;51.972;5.682;2023-06-14T01:03:31;4.80;;;2.90;;
75216;SDS011;63800;51.972;5.682;2023-06-14T01:06:11;6.57;;;3.30;;
75216;SDS011;63800;51.972;5.682;2023-06-14T01:08:56;4.30;;;2.78;;
75216;SDS011;63800;51.972;5.682;2023-06-14T01:11:26;4.88;;;2.90;;
75216;SDS011;63800;51.972;5.682;2023-06-14T01:13:56;5.80;;;3.05;;
75216;SDS011;63800;51.972;5.682;2023-06-14T01:16:26;4.95;;;2.92;;
75216;SDS011;63800;51.972;5.682;2023-06-14T01:18:53;4.50;;;3.67;;
75216;SDS011;63800;51.972;5.682;2023-06-14T01:21:24;4.75;;;3.10;;
75216;SDS011;63800;51.972;5.682;2023-06-14T01:23:51;4.57;;;2.80;;
75216;SDS011;63800;51.972;5.682;2023-06-14T01:26:21;5.20;;;2.70;;
75216;SDS011;63800;51.972;5.682;2023-06-14T01:28:47;5.00;;;3.20;;
75216;SDS011;63800;51.972;5.682;2023-06-14T01:31:19;5.95;;;3.10;;
75216;SDS011;63800;51.972;5.682;2023-06-14T01:33:46;4.30;;;3.13;;
75216;SDS011;63800;51.972;5.682;2023-06-14T01:36:13;5.05;;;3.45;;
75216;SDS011;63800;51.972;5.682;2023-06-14T01:38:40;4.13;;;2.80;;
75216;SDS011;63800;51.972;5.682;2023-06-14T01:41:08;4.18;;;3.08;;
75216;SDS011;63800;51.972;5.682;2023-06-14T01:43:34;5.40;;;2.92;;
75216;SDS011;63800;51.972;5.682;2023-06-14T01:46:00;5.85;;;3.03;;
75216;SDS011;63800;51.972;5.682;2023-06-14T01:48:28;6.13;;;3.22;;
75216;SDS011;63800;51.972;5.682;2023-06-14T01:50:53;4.70;;;3.00;;
75216;SDS011;63800;51.972;5.682;2023-06-14T01:53:19;6.25;;;3.17;;
75216;SDS011;63800;51.972;5.682;2023-06-14T01:55:45;3.97;;;2.90;;
75216;SDS011;63800;51.972;5.682;2023-06-14T01:58:13;5.07;;;3.03;;
75216;SDS011;63800;51.972;5.682;2023-06-14T02:00:41;4.97;;;2.88;;
75216;SDS011;63800;51.972;5.682;2023-06-14T02:03:08;6.53;;;3.10;;
75216;SDS011;63800;51.972;5.682;2023-06-14T02:05:33;4.60;;;3.03;;
75216;SDS011;63800;51.972;5.682;2023-06-14T02:07:59;5.20;;;2.70;;
75216;SDS011;63800;51.972;5.682;2023-06-14T02:10:25;5.53;;;3.10;;
75216;SDS011;63800;51.972;5.682;2023-06-14T02:12:51;5.93;;;2.95;;
75216;SDS011;63800;51.972;5.682;2023-06-14T02:15:16;4.88;;;3.17;;
75216;SDS011;63800;51.972;5.682;2023-06-14T02:17:43;5.60;;;2.55;;
75216;SDS011;63800;51.972;5.682;2023-06-14T02:20:09;3.33;;;2.80;;
75216;SDS011;63800;51.972;5.682;2023-06-14T02:22:35;5.63;;;2.78;;
75216;SDS011;63800;51.972;5.682;2023-06-14T02:25:01;5.05;;;2.97;;
75216;SDS011;63800;51.972;5.682;2023-06-14T02:27:26;4.00;;;2.90;;
75216;SDS011;63800;51.972;5.682;2023-06-14T02:29:52;4.85;;;2.92;;
75216;SDS011;63800;51.972;5.682;2023-06-14T02:32:17;6.05;;;3.20;;
75216;SDS011;63800;51.972;5.682;2023-06-14T02:34:43;5.53;;;2.90;;
75216;SDS011;63800;51.972;5.682;2023-06-14T02:37:08;4.95;;;2.90;;
75216;SDS011;63800;51.972;5.682;2023-06-14T02:39:34;4.63;;;3.20;;
75216;SDS011;63800;51.972;5.682;2023-06-14T02:42:00;4.38;;;2.78;;
75216;SDS011;63800;51.972;5.682;2023-06-14T02:44:26;6.25;;;2.95;;
75216;SDS011;63800;51.972;5.682;2023-06-14T02:46:52;5.10;;;2.88;;
75216;SDS011;63800;51.972;5.682;2023-06-14T02:49:19;4.15;;;2.92;;
75216;SDS011;63800;51.972;5.682;2023-06-14T02:51:44;4.32;;;2.80;;
75216;SDS011;63800;51.972;5.682;2023-06-14T02:54:10;5.57;;;2.70;;
75216;SDS011;63800;51.972;5.682;2023-06-14T02:56:35;5.43;;;2.80;;
75216;SDS011;63800;51.972;5.682;2023-06-14T02:59:01;7.40;;;2.92;;
75216;SDS011;63800;51.972;5.682;2023-06-14T03:01:27;3.47;;;2.63;;
75216;SDS011;63800;51.972;5.682;2023-06-14T03:03:59;6.72;;;3.13;;
75216;SDS011;63800;51.972;5.682;2023-06-14T03:06:25;4.78;;;3.00;;
75216;SDS011;63800;51.972;5.682;2023-06-14T03:08:50;6.18;;;3.00;;
75216;SDS011;63800;51.972;5.682;2023-06-14T03:11:16;5.13;;;2.75;;
75216;SDS011;63800;51.972;5.682;2023-06-14T03:13:45;5.10;;;2.75;;
75216;SDS011;63800;51.972;5.682;2023-06-14T03:16:11;5.47;;;2.85;;
75216;SDS011;63800;51.972;5.682;2023-06-14T03:18:37;5.55;;;2.97;;
75216;SDS011;63800;51.972;5.682;2023-06-14T03:21:02;3.28;;;2.53;;
75216;SDS011;63800;51.972;5.682;2023-06-14T03:23:28;6.00;;;2.53;;
75216;SDS011;63800;51.972;5.682;2023-06-14T03:25:53;5.35;;;2.70;;
75216;SDS011;63800;51.972;5.682;2023-06-14T03:28:19;7.07;;;3.38;;
75216;SDS011;63800;51.972;5.682;2023-06-14T03:30:45;5.78;;;3.00;;
75216;SDS011;63800;51.972;5.682;2023-06-14T03:33:10;6.13;;;2.70;;
75216;SDS011;63800;51.972;5.682;2023-06-14T03:35:36;6.10;;;2.70;;
75216;SDS011;63800;51.972;5.682;2023-06-14T03:38:01;3.38;;;2.38;;
75216;SDS011;63800;51.972;5.682;2023-06-14T03:40:27;6.10;;;2.60;;
75216;SDS011;63800;51.972;5.682;2023-06-14T03:42:53;6.57;;;2.92;;
75216;SDS011;63800;51.972;5.682;2023-06-14T03:45:19;5.15;;;2.60;;
75216;SDS011;63800;51.972;5.682;2023-06-14T03:47:46;5.07;;;2.60;;
75216;SDS011;63800;51.972;5.682;2023-06-14T03:50:11;4.57;;;2.78;;
75216;SDS011;63800;51.972;5.682;2023-06-14T03:52:37;4.70;;;2.72;;
75216;SDS011;63800;51.972;5.682;2023-06-14T03:55:03;6.20;;;3.20;;
75216;SDS011;63800;51.972;5.682;2023-06-14T03:57:29;5.72;;;2.95;;
75216;SDS011;63800;51.972;5.682;2023-06-14T03:59:55;4.85;;;2.92;;
75216;SDS011;63800;51.972;5.682;2023-06-14T04:02:21;5.93;;;2.80;;
75216;SDS011;63800;51.972;5.682;2023-06-14T04:04:47;6.80;;;2.90;;
75216;SDS011;63800;51.972;5.682;2023-06-14T04:07:13;5.75;;;3.20;;
75216;SDS011;63800;51.972;5.682;2023-06-14T04:09:44;5.43;;;3.30;;
75216;SDS011;63800;51.972;5.682;2023-06-14T04:12:10;4.45;;;2.72;;
75216;SDS011;63800;51.972;5.682;2023-06-14T04:14:36;5.05;;;2.70;;
75216;SDS011;63800;51.972;5.682;2023-06-14T04:17:02;5.25;;;3.40;;
75216;SDS011;63800;51.972;5.682;2023-06-14T04:19:28;7.00;;;3.05;;
75216;SDS011;63800;51.972;5.682;2023-06-14T04:21:53;5.45;;;2.60;;
75216;SDS011;63800;51.972;5.682;2023-06-14T04:24:19;4.22;;;2.97;;
75216;SDS011;63800;51.972;5.682;2023-06-14T04:26:44;6.05;;;3.60;;
75216;SDS011;63800;51.972;5.682;2023-06-14T04:29:15;5.35;;;2.97;;
75216;SDS011;63800;51.972;5.682;2023-06-14T04:31:42;5.28;;;2.92;;
75216;SDS011;63800;51.972;5.682;2023-06-14T04:34:09;5.57;;;2.55;;
75216;SDS011;63800;51.972;5.682;2023-06-14T04:36:40;6.20;;;3.03;;
75216;SDS011;63800;51.972;5.682;2023-06-14T04:39:12;5.75;;;3.08;;
75216;SDS011;63800;51.972;5.682;2023-06-14T04:41:38;6.85;;;2.65;;
75216;SDS011;63800;51.972;5.682;2023-06-14T04:44:03;4.88;;;2.80;;
75216;SDS011;63800;51.972;5.682;2023-06-14T04:46:29;6.53;;;2.45;;
75216;SDS011;63800;51.972;5.682;2023-06-14T04:48:56;5.75;;;2.92;;
75216;SDS011;63800;51.972;5.682;2023-06-14T04:51:22;5.75;;;2.80;;
75216;SDS011;63800;51.972;5.682;2023-06-14T04:53:54;3.75;;;2.55;;
75216;SDS011;63800;51.972;5.682;2023-06-14T04:56:21;7.70;;;3.42;;
75216;SDS011;63800;51.972;5.682;2023-06-14T04:58:48;5.32;;;3.30;;
75216;SDS011;63800;51.972;5.682;2023-06-14T05:01:13;5.65;;;3.00;;
75216;SDS011;63800;51.972;5.682;2023-06-14T05:03:39;4.10;;;2.60;;
75216;SDS011;63800;51.972;5.682;2023-06-14T05:06:04;6.43;;;3.00;;
75216;SDS011;63800;51.972;5.682;2023-06-14T05:08:31;3.97;;;2.80;;
75216;SDS011;63800;51.972;5.682;2023-06-14T05:10:56;5.15;;;2.60;;
75216;SDS011;63800;51.972;5.682;2023-06-14T05:13:21;4.43;;;3.00;;
75216;SDS011;63800;51.972;5.682;2023-06-14T05:15:48;6.38;;;3.17;;
75216;SDS011;63800;51.972;5.682;2023-06-14T05:18:14;4.13;;;2.58;;
75216;SDS011;63800;51.972;5.682;2023-06-14T05:20:40;6.53;;;3.28;;
75216;SDS011;63800;51.972;5.682;2023-06-14T05:23:09;3.33;;;2.80;;
75216;SDS011;63800;51.972;5.682;2023-06-14T05:25:40;3.95;;;2.40;;
75216;SDS011;63800;51.972;5.682;2023-06-14T05:28:07;4.38;;;2.60;;
75216;SDS011;63800;51.972;5.682;2023-06-14T05:30:32;4.70;;;2.70;;
75216;SDS011;63800;51.972;5.682;2023-06-14T05:32:58;3.97;;;2.70;;
75216;SDS011;63800;51.972;5.682;2023-06-14T05:35:23;3.60;;;2.72;;
75216;SDS011;63800;51.972;5.682;2023-06-14T05:37:51;3.10;;;2.75;;
75216;SDS011;63800;51.972;5.682;2023-06-14T05:40:17;4.65;;;2.60;;
75216;SDS011;63800;51.972;5.682;2023-06-14T05:42:43;4.95;;;2.90;;
75216;SDS011;63800;51.972;5.682;2023-06-14T05:45:08;4.75;;;3.00;;
75216;SDS011;63800;51.972;5.682;2023-06-14T05:47:34;4.38;;;2.78;;
75216;SDS011;63800;51.972;5.682;2023-06-14T05:49:59;5.47;;;2.60;;
75216;SDS011;63800;51.972;5.682;2023-06-14T05:52:25;3.67;;;2.58;;
75216;SDS011;63800;51.972;5.682;2023-06-14T05:54:51;7.25;;;3.05;;
75216;SDS011;63800;51.972;5.682;2023-06-14T05:57:16;5.45;;;2.70;;
75216;SDS011;63800;51.972;5.682;2023-06-14T05:59:42;7.30;;;2.80;;
75216;SDS011;63800;51.972;5.682;2023-06-14T06:02:07;4.10;;;3.00;;
75216;SDS011;63800;51.972;5.682;2023-06-14T06:04:33;3.67;;;2.53;;
75216;SDS011;63800;51.972;5.682;2023-06-14T06:06:58;2.67;;;2.40;;
75216;SDS011;63800;51.972;5.682;2023-06-14T06:09:23;3.72;;;3.10;;
75216;SDS011;63800;51.972;5.682;2023-06-14T06:11:49;3.35;;;2.78;;
75216;SDS011;63800;51.972;5.682;2023-06-14T06:14:14;5.88;;;2.83;;
75216;SDS011;63800;51.972;5.682;2023-06-14T06:16:40;4.30;;;2.70;;
75216;SDS011;63800;51.972;5.682;2023-06-14T06:19:05;5.07;;;2.83;;
75216;SDS011;63800;51.972;5.682;2023-06-14T06:21:31;6.28;;;3.10;;
75216;SDS011;63800;51.972;5.682;2023-06-14T06:23:56;4.07;;;2.70;;
75216;SDS011;63800;51.972;5.682;2023-06-14T06:26:22;5.10;;;2.67;;
75216;SDS011;63800;51.972;5.682;2023-06-14T06:28:47;5.47;;;2.83;;
75216;SDS011;63800;51.972;5.682;2023-06-14T06:31:13;4.13;;;2.72;;
75216;SDS011;63800;51.972;5.682;2023-06-14T06:33:39;4.25;;;2.88;;
75216;SDS011;63800;51.972;5.682;2023-06-14T06:36:05;3.90;;;2.80;;
75216;SDS011;63800;51.972;5.682;2023-06-14T06:38:30;4.63;;;2.85;;
75216;SDS011;63800;51.972;5.682;2023-06-14T06:40:56;4.93;;;3.17;;
75216;SDS011;63800;51.972;5.682;2023-06-14T06:43:21;3.85;;;3.00;;
75216;SDS011;63800;51.972;5.682;2023-06-14T06:45:47;4.68;;;3.10;;
75216;SDS011;63800;51.972;5.682;2023-06-14T06:48:12;4.78;;;3.15;;
75216;SDS011;63800;51.972;5.682;2023-06-14T06:50:38;4.25;;;2.97;;
75216;SDS011;63800;51.972;5.682;2023-06-14T06:53:03;3.20;;;2.70;;
75216;SDS011;63800;51.972;5.682;2023-06-14T06:55:30;4.68;;;3.10;;
75216;SDS011;63800;51.972;5.682;2023-06-14T06:57:55;5.32;;;3.42;;
75216;SDS011;63800;51.972;5.682;2023-06-14T07:00:21;5.95;;;3.17;;
75216;SDS011;63800;51.972;5.682;2023-06-14T07:02:47;5.05;;;2.75;;
75216;SDS011;63800;51.972;5.682;2023-06-14T07:05:12;4.28;;;2.78;;
75216;SDS011;63800;51.972;5.682;2023-06-14T07:07:38;6.22;;;3.35;;
75216;SDS011;63800;51.972;5.682;2023-06-14T07:10:03;6.60;;;3.15;;
75216;SDS011;63800;51.972;5.682;2023-06-14T07:12:30;4.43;;;3.20;;
75216;SDS011;63800;51.972;5.682;2023-06-14T07:14:58;5.72;;;3.05;;
75216;SDS011;63800;51.972;5.682;2023-06-14T07:17:24;3.30;;;2.78;;
75216;SDS011;63800;51.972;5.682;2023-06-14T07:19:50;5.40;;;2.78;;
75216;SDS011;63800;51.972;5.682;2023-06-14T07:22:16;3.70;;;2.75;;
75216;SDS011;63800;51.972;5.682;2023-06-14T07:24:41;4.63;;;3.08;;
75216;SDS011;63800;51.972;5.682;2023-06-14T07:27:07;4.78;;;2.83;;
75216;SDS011;63800;51.972;5.682;2023-06-14T07:29:32;3.75;;;2.83;;
75216;SDS011;63800;51.972;5.682;2023-06-14T07:31:58;4.45;;;2.60;;
75216;SDS011;63800;51.972;5.682;2023-06-14T07:34:23;4.03;;;2.60;;
75216;SDS011;63800;51.972;5.682;2023-06-14T07:36:49;5.47;;;2.70;;
75216;SDS011;63800;51.972;5.682;2023-06-14T07:39:14;3.45;;;2.45;;
75216;SDS011;63800;51.972;5.682;2023-06-14T07:41:40;6.07;;;2.63;;
75216;SDS011;63800;51.972;5.682;2023-06-14T07:44:05;3.95;;;2.58;;
75216;SDS011;63800;51.972;5.682;2023-06-14T07:46:31;3.45;;;2.53;;
75216;SDS011;63800;51.972;5.682;2023-06-14T07:48:56;3.90;;;2.72;;
75216;SDS011;63800;51.972;5.682;2023-06-14T07:51:22;3.17;;;2.53;;
75216;SDS011;63800;51.972;5.682;2023-06-14T07:53:48;2.97;;;2.20;;
75216;SDS011;63800;51.972;5.682;2023-06-14T07:56:14;4.18;;;2.42;;
75216;SDS011;63800;51.972;5.682;2023-06-14T07:58:40;4.75;;;2.50;;
75216;SDS011;63800;51.972;5.682;2023-06-14T08:01:05;2.80;;;2.22;;
75216;SDS011;63800;51.972;5.682;2023-06-14T08:03:33;2.90;;;2.22;;
75216;SDS011;63800;51.972;5.682;2023-06-14T08:05:59;4.22;;;2.22;;
75216;SDS011;63800;51.972;5.682;2023-06-14T08:08:26;5.53;;;2.30;;
75216;SDS011;63800;51.972;5.682;2023-06-14T08:10:51;4.13;;;2.50;;
75216;SDS011;63800;51.972;5.682;2023-06-14T08:13:17;7.72;;;2.50;;
75216;SDS011;63800;51.972;5.682;2023-06-14T08:15:42;3.72;;;2.00;;
75216;SDS011;63800;51.972;5.682;2023-06-14T08:18:09;3.80;;;2.35;;
75216;SDS011;63800;51.972;5.682;2023-06-14T08:20:34;3.33;;;1.80;;
75216;SDS011;63800;51.972;5.682;2023-06-14T08:23:00;3.28;;;2.33;;
75216;SDS011;63800;51.972;5.682;2023-06-14T08:25:27;2.00;;;1.80;;
75216;SDS011;63800;51.972;5.682;2023-06-14T08:27:53;3.65;;;1.90;;
75216;SDS011;63800;51.972;5.682;2023-06-14T08:30:18;3.10;;;1.88;;
75216;SDS011;63800;51.972;5.682;2023-06-14T08:32:44;3.35;;;1.88;;
75216;SDS011;63800;51.972;5.682;2023-06-14T08:35:09;3.83;;;1.95;;
75216;SDS011;63800;51.972;5.682;2023-06-14T08:37:38;5.07;;;1.88;;
75216;SDS011;63800;51.972;5.682;2023-06-14T08:40:06;4.18;;;1.80;;
75216;SDS011;63800;51.972;5.682;2023-06-14T08:42:43;2.45;;;1.95;;
75216;SDS011;63800;51.972;5.682;2023-06-14T08:45:10;2.33;;;1.90;;
75216;SDS011;63800;51.972;5.682;2023-06-14T08:47:36;2.83;;;1.80;;
75216;SDS011;63800;51.972;5.682;2023-06-14T08:50:02;3.63;;;2.17;;
75216;SDS011;63800;51.972;5.682;2023-06-14T08:52:29;2.28;;;1.92;;
75216;SDS011;63800;51.972;5.682;2023-06-14T08:54:59;2.55;;;1.80;;
75216;SDS011;63800;51.972;5.682;2023-06-14T08:57:25;2.38;;;1.70;;
75216;SDS011;63800;51.972;5.682;2023-06-14T08:59:55;3.08;;;1.65;;
75216;SDS011;63800;51.972;5.682;2023-06-14T09:02:22;2.63;;;2.08;;
75216;SDS011;63800;51.972;5.682;2023-06-14T09:04:47;2.70;;;1.90;;
75216;SDS011;63800;51.972;5.682;2023-06-14T09:07:14;2.60;;;2.00;;
75216;SDS011;63800;51.972;5.682;2023-06-14T09:09:40;3.05;;;2.00;;
75216;SDS011;63800;51.972;5.682;2023-06-14T09:12:10;6.90;;;2.63;;
75216;SDS011;63800;51.972;5.682;2023-06-14T09:14:37;2.47;;;1.92;;
75216;SDS011;63800;51.972;5.682;2023-06-14T09:17:05;4.55;;;2.45;;
75216;SDS011;63800;51.972;5.682;2023-06-14T09:19:31;2.97;;;1.83;;
75216;SDS011;63800;51.972;5.682;2023-06-14T09:21:56;2.88;;;1.90;;
75216;SDS011;63800;51.972;5.682;2023-06-14T09:24:23;2.75;;;2.10;;
75216;SDS011;63800;51.972;5.682;2023-06-14T09:26:50;2.83;;;1.60;;
75216;SDS011;63800;51.972;5.682;2023-06-14T09:29:16;2.75;;;1.83;;
75216;SDS011;63800;51.972;5.682;2023-06-14T09:31:43;2.75;;;1.90;;
75216;SDS011;63800;51.972;5.682;2023-06-14T09:34:10;2.03;;;1.52;;
75216;SDS011;63800;51.972;5.682;2023-06-14T09:36:36;3.55;;;2.30;;
75216;SDS011;63800;51.972;5.682;2023-06-14T09:39:04;2.50;;;1.90;;
75216;SDS011;63800;51.972;5.682;2023-06-14T09:41:31;2.13;;;1.80;;
75216;SDS011;63800;51.972;5.682;2023-06-14T09:44:00;3.28;;;2.00;;
75216;SDS011;63800;51.972;5.682;2023-06-14T09:46:27;3.22;;;1.80;;
75216;SDS011;63800;51.972;5.682;2023-06-14T09:48:54;2.47;;;1.90;;
75216;SDS011;63800;51.972;5.682;2023-06-14T09:51:20;3.95;;;1.80;;
75216;SDS011;63800;51.972;5.682;2023-06-14T09:53:51;3.28;;;1.70;;
75216;SDS011;63800;51.972;5.682;2023-06-14T09:56:22;3.65;;;1.55;;
75216;SDS011;63800;51.972;5.682;2023-06-14T09:58:55;1.60;;;1.50;;
75216;SDS011;63800;51.972;5.682;2023-06-14T10:01:26;3.47;;;1.67;;
75216;SDS011;63800;51.972;5.682;2023-06-14T10:03:55;2.03;;;1.80;;
75216;SDS011;63800;51.972;5.682;2023-06-14T10:06:38;2.72;;;1.70;;
75216;SDS011;63800;51.972;5.682;2023-06-14T10:09:06;5.05;;;2.20;;
75216;SDS011;63800;51.972;5.682;2023-06-14T10:11:33;3.10;;;2.00;;
75216;SDS011;63800;51.972;5.682;2023-06-14T10:14:00;4.38;;;2.00;;
75216;SDS011;63800;51.972;5.682;2023-06-14T10:16:31;3.38;;;1.60;;
75216;SDS011;63800;51.972;5.682;2023-06-14T10:24:48;4.43;;;1.77;;
75216;SDS011;63800;51.972;5.682;2023-06-14T10:27:15;3.83;;;1.88;;
75216;SDS011;63800;51.972;5.682;2023-06-14T10:32:17;3.13;;;1.70;;
75216;SDS011;63800;51.972;5.682;2023-06-14T10:34:43;3.35;;;1.90;;
75216;SDS011;63800;51.972;5.682;2023-06-14T10:37:13;3.03;;;1.88;;
75216;SDS011;63800;51.972;5.682;2023-06-14T10:42:11;2.25;;;2.05;;
75216;SDS011;63800;51.972;5.682;2023-06-14T10:47:07;3.33;;;2.10;;
75216;SDS011;63800;51.972;5.682;2023-06-14T10:49:49;2.08;;;1.75;;
75216;SDS011;63800;51.972;5.682;2023-06-14T10:52:16;2.60;;;2.05;;
75216;SDS011;63800;51.972;5.682;2023-06-14T10:54:55;4.10;;;1.90;;
75216;SDS011;63800;51.972;5.682;2023-06-14T11:00:06;4.57;;;1.80;;
75216;SDS011;63800;51.972;5.682;2023-06-14T11:02:56;3.80;;;2.05;;
75216;SDS011;63800;51.972;5.682;2023-06-14T11:05:25;2.13;;;1.83;;
75216;SDS011;63800;51.972;5.682;2023-06-14T11:08:11;3.38;;;1.55;;
75216;SDS011;63800;51.972;5.682;2023-06-14T11:10:47;4.47;;;2.25;;
75216;SDS011;63800;51.972;5.682;2023-06-14T11:13:13;3.33;;;2.13;;
75216;SDS011;63800;51.972;5.682;2023-06-14T11:15:43;2.05;;;1.60;;
75216;SDS011;63800;51.972;5.682;2023-06-14T11:18:11;2.10;;;1.90;;
75216;SDS011;63800;51.972;5.682;2023-06-14T11:20:39;2.10;;;1.90;;
75216;SDS011;63800;51.972;5.682;2023-06-14T11:23:05;2.20;;;2.00;;
75216;SDS011;63800;51.972;5.682;2023-06-14T11:25:30;2.30;;;1.90;;
75216;SDS011;63800;51.972;5.682;2023-06-14T11:27:56;3.88;;;2.10;;
75216;SDS011;63800;51.972;5.682;2023-06-14T11:30:23;2.55;;;1.90;;
75216;SDS011;63800;51.972;5.682;2023-06-14T11:32:49;2.47;;;2.08;;
75216;SDS011;63800;51.972;5.682;2023-06-14T11:35:15;2.97;;;1.90;;
75216;SDS011;63800;51.972;5.682;2023-06-14T11:37:42;2.28;;;2.00;;
75216;SDS011;63800;51.972;5.682;2023-06-14T11:40:09;3.17;;;1.90;;
75216;SDS011;63800;51.972;5.682;2023-06-14T11:42:36;3.17;;;1.98;;
75216;SDS011;63800;51.972;5.682;2023-06-14T11:45:03;3.28;;;2.47;;
75216;SDS011;63800;51.972;5.682;2023-06-14T11:47:34;2.10;;;1.90;;
75216;SDS011;63800;51.972;5.682;2023-06-14T11:50:01;2.90;;;1.80;;
75216;SDS011;63800;51.972;5.682;2023-06-14T11:52:26;2.72;;;1.80;;
75216;SDS011;63800;51.972;5.682;2023-06-14T11:54:52;2.22;;;1.70;;
75216;SDS011;63800;51.972;5.682;2023-06-14T11:57:18;3.35;;;2.00;;
75216;SDS011;63800;51.972;5.682;2023-06-14T11:59:44;2.15;;;1.75;;
75216;SDS011;63800;51.972;5.682;2023-06-14T12:02:16;3.20;;;2.15;;
75216;SDS011;63800;51.972;5.682;2023-06-14T12:04:43;2.22;;;1.85;;
75216;SDS011;63800;51.972;5.682;2023-06-14T12:07:10;2.85;;;1.80;;
75216;SDS011;63800;51.972;5.682;2023-06-14T12:10:03;3.20;;;2.13;;
75216;SDS011;63800;51.972;5.682;2023-06-14T12:12:34;3.78;;;2.00;;
75216;SDS011;63800;51.972;5.682;2023-06-14T12:15:02;3.60;;;2.22;;
75216;SDS011;63800;51.972;5.682;2023-06-14T12:17:31;2.33;;;2.00;;
75216;SDS011;63800;51.972;5.682;2023-06-14T12:19:58;4.97;;;2.10;;
75216;SDS011;63800;51.972;5.682;2023-06-14T12:22:24;4.32;;;2.20;;
75216;SDS011;63800;51.972;5.682;2023-06-14T12:24:49;3.80;;;2.10;;
75216;SDS011;63800;51.972;5.682;2023-06-14T12:27:15;3.88;;;2.53;;
75216;SDS011;63800;51.972;5.682;2023-06-14T12:29:43;2.60;;;1.95;;
75216;SDS011;63800;51.972;5.682;2023-06-14T12:32:09;1.98;;;1.60;;
75216;SDS011;63800;51.972;5.682;2023-06-14T12:34:35;4.13;;;1.90;;
75216;SDS011;63800;51.972;5.682;2023-06-14T12:37:01;2.60;;;2.17;;
75216;SDS011;63800;51.972;5.682;2023-06-14T12:39:29;3.08;;;2.00;;
75216;SDS011;63800;51.972;5.682;2023-06-14T12:41:56;2.83;;;1.80;;
75216;SDS011;63800;51.972;5.682;2023-06-14T12:44:22;3.25;;;1.83;;
75216;SDS011;63800;51.972;5.682;2023-06-14T12:46:48;4.68;;;2.50;;
75216;SDS011;63800;51.972;5.682;2023-06-14T12:49:16;2.47;;;1.83;;
75216;SDS011;63800;51.972;5.682;2023-06-14T12:51:41;2.00;;;1.70;;
75216;SDS011;63800;51.972;5.682;2023-06-14T12:54:07;2.00;;;1.70;;
75216;SDS011;63800;51.972;5.682;2023-06-14T12:56:32;3.00;;;1.80;;
75216;SDS011;63800;51.972;5.682;2023-06-14T12:58:58;3.30;;;1.85;;
75216;SDS011;63800;51.972;5.682;2023-06-14T13:01:24;4.35;;;1.90;;
75216;SDS011;63800;51.972;5.682;2023-06-14T13:03:49;3.92;;;1.95;;
75216;SDS011;63800;51.972;5.682;2023-06-14T13:06:20;1.85;;;1.67;;
75216;SDS011;63800;51.972;5.682;2023-06-14T13:08:46;3.15;;;2.00;;
75216;SDS011;63800;51.972;5.682;2023-06-14T13:11:12;2.53;;;1.92;;
75216;SDS011;63800;51.972;5.682;2023-06-14T13:13:37;3.60;;;2.08;;
75216;SDS011;63800;51.972;5.682;2023-06-14T13:16:02;2.47;;;1.92;;
75216;SDS011;63800;51.972;5.682;2023-06-14T13:18:28;3.13;;;1.92;;
75216;SDS011;63800;51.972;5.682;2023-06-14T13:20:53;2.40;;;1.85;;
75216;SDS011;63800;51.972;5.682;2023-06-14T13:23:19;2.63;;;1.90;;
75216;SDS011;63800;51.972;5.682;2023-06-14T13:25:44;4.22;;;2.10;;
75216;SDS011;63800;51.972;5.682;2023-06-14T13:28:10;2.92;;;2.10;;
75216;SDS011;63800;51.972;5.682;2023-06-14T13:30:35;2.40;;;2.20;;
75216;SDS011;63800;51.972;5.682;2023-06-14T13:33:01;3.17;;;1.88;;
75216;SDS011;63800;51.972;5.682;2023-06-14T13:35:27;2.75;;;2.05;;
75216;SDS011;63800;51.972;5.682;2023-06-14T13:37:53;2.35;;;1.92;;
75216;SDS011;63800;51.972;5.682;2023-06-14T13:40:19;2.42;;;1.98;;
75216;SDS011;63800;51.972;5.682;2023-06-14T13:42:45;1.70;;;1.60;;
75216;SDS011;63800;51.972;5.682;2023-06-14T13:45:11;4.18;;;1.92;;
75216;SDS011;63800;51.972;5.682;2023-06-14T13:47:38;2.15;;;1.92;;
75216;SDS011;63800;51.972;5.682;2023-06-14T13:50:04;1.98;;;1.83;;
75216;SDS011;63800;51.972;5.682;2023-06-14T13:52:30;1.77;;;1.52;;
75216;SDS011;63800;51.972;5.682;2023-06-14T13:54:55;1.92;;;1.73;;
75216;SDS011;63800;51.972;5.682;2023-06-14T13:57:21;1.67;;;1.58;;
75216;SDS011;63800;51.972;5.682;2023-06-14T13:59:47;3.10;;;1.60;;
75216;SDS011;63800;51.972;5.682;2023-06-14T14:02:12;1.95;;;1.60;;
75216;SDS011;63800;51.972;5.682;2023-06-14T14:04:38;1.75;;;1.50;;
75216;SDS011;63800;51.972;5.682;2023-06-14T14:07:05;1.75;;;1.60;;
75216;SDS011;63800;51.972;5.682;2023-06-14T14:09:31;2.45;;;1.50;;
75216;SDS011;63800;51.972;5.682;2023-06-14T14:11:57;2.33;;;1.77;;
75216;SDS011;63800;51.972;5.682;2023-06-14T14:14:23;1.85;;;1.50;;
75216;SDS011;63800;51.972;5.682;2023-06-14T14:16:49;2.72;;;1.67;;
75216;SDS011;63800;51.972;5.682;2023-06-14T14:19:16;1.98;;;1.55;;
75216;SDS011;63800;51.972;5.682;2023-06-14T14:21:43;1.55;;;1.40;;
75216;SDS011;63800;51.972;5.682;2023-06-14T14:24:09;1.90;;;1.60;;
75216;SDS011;63800;51.972;5.682;2023-06-14T14:26:35;1.70;;;1.60;;
75216;SDS011;63800;51.972;5.682;2023-06-14T14:29:00;3.15;;;1.50;;
75216;SDS011;63800;51.972;5.682;2023-06-14T14:31:27;2.08;;;1.75;;
75216;SDS011;63800;51.972;5.682;2023-06-14T14:33:53;1.77;;;1.67;;
75216;SDS011;63800;51.972;5.682;2023-06-14T14:36:18;1.65;;;1.55;;
75216;SDS011;63800;51.972;5.682;2023-06-14T14:38:44;1.77;;;1.50;;
75216;SDS011;63800;51.972;5.682;2023-06-14T14:41:10;1.70;;;1.60;;
75216;SDS011;63800;51.972;5.682;2023-06-14T14:43:35;2.08;;;1.63;;
75216;SDS011;63800;51.972;5.682;2023-06-14T14:46:00;1.80;;;1.70;;
75216;SDS011;63800;51.972;5.682;2023-06-14T14:48:26;2.05;;;1.48;;
75216;SDS011;63800;51.972;5.682;2023-06-14T14:50:51;2.15;;;1.60;;
75216;SDS011;63800;51.972;5.682;2023-06-14T14:53:17;2.72;;;1.52;;
75216;SDS011;63800;51.972;5.682;2023-06-14T14:55:43;2.90;;;1.80;;
75216;SDS011;63800;51.972;5.682;2023-06-14T14:58:09;2.65;;;1.67;;
75216;SDS011;63800;51.972;5.682;2023-06-14T15:00:34;1.95;;;1.75;;